Terminal Aerodrome Forecast
Issued by NWS

Home | Current Version | Previous Version | Text Only | Print | Product List | Glossary On
Versions: 1 2 3 4 5 6 7 8 9 10 11 12 13 14
320
FTUS44 KEPZ 082326
TAFTCS
TAF
KTCS 082326Z 0900/0924 18006KT P6SM SCT040
     FM090300 34004KT P6SM BKN030 BKN250
     FM091800 16005KT P6SM SCT250=

USA.gov is the U.S. government's official web portal to all federal, state and local government web resources and services.